AirNav   Pilot Hours Calculator
 
 1132 users online  

19PN Walnut Grove Airport
Mount Joy, Pennsylvania, USA

GOING TO MOUNT JOY?


FAA INFORMATION EFFECTIVE 18 JULY 2019

Location

FAA Identifier: 19PN
Lat/Long: 40-05-34.9600N / 076-29-35.3000W
40-05.582667N / 076-29.588333W
40.0930444 / -76.4931389
(estimated)
Elevation: 366 ft. / 112 m (estimated)
From city: 1 mile S of MOUNT JOY, PA
Time zone: UTC -4 (UTC -5 during Standard Time)
Zip code: 17552

Airport Operations

Airport use: Private use. Permission required prior to landing
Activation date: 09/2017
Control tower: no
ARTCC: NEW YORK CENTER
FSS: WILLIAMSPORT FLIGHT SERVICE STATION
Attendance: UNATNDD
Wind indicator: yes
Segmented circle: no

Airport Communications

WX ASOS at LNS (9 nm E): 125.675 (717-569-8860)
WX ASOS at MDT (14 nm NW): PHONE 717-944-1372
WX AWOS-2 at 9D4 (17 nm NE): 118.45 (717-866-2906)
WX ASOS at CXY (18 nm NW): PHONE 717-770-0880

Nearby radio navigation aids

VOR radial/distance  VOR name  Freq  Var
LRPr269/9.4LANCASTER VOR/DME117.3009W
RAVr181/28.0RAVINE VORTAC114.6011W
HARr125/29.2HARRISBURG VORTAC112.5010W
MXEr295/39.2MODENA VORTAC113.2009W

 
NDB name  Hdg/Dist  Freq  Var  ID
BELLGROVE182/20.832810WBZJ -... --.. .---

Airport Services

Runway Information

Runway 13/31

Dimensions: 1400 x 70 ft. / 427 x 21 m
Surface: turf/gravel
RUNWAY 13  RUNWAY 31
Latitude: 40-05.582667N
Longitude: 076-29.588333W
Elevation: 366.0 ft.
Traffic pattern: leftleft
Obstructions: 54 ft. tree, 724 ft. from runwaynone

Airport Ownership and Management from official FAA records

Ownership: Privately-owned
Owner: DAVID REIST
598 LONGENECKER RD.
MOUNT JOY, PA 17552
Phone (717) 475-6397
Manager: DAVID REIST
598 LONGENECKER RD.
MOUNT JOY, PA 17552
Phone (717) 475-6397

Airport Operational Statistics

Aircraft based on the field: 1
Single engine airplanes: 1
    

Additional Remarks

FOR CD CTC HARRISBURG APCH AT 800-932-0712

Instrument Procedures

There are no published instrument procedures at 19PN.

Some nearby airports with instrument procedures:

N71 - Donegal Springs Airpark (4 nm W)
KLNS - Lancaster Airport (9 nm E)
58N - Reigle Field Airport (12 nm N)
KMDT - Harrisburg International Airport (14 nm NW)
08N - Keller Brothers Airport (14 nm NE)
9D4 - Deck Airport (17 nm NE)
KCXY - Capital City Airport (18 nm NW)
 
Loc | Ops | Rwys | IFR | FBO | Links
Com | Nav | Svcs | Stats | Notes
Aerial photo
No photo
 
Airport distance calculator
Flying to Walnut Grove Airport? Find the distance to fly.

From to 19PN

Sunrise and sunset
Times for 17-Jul-2019
 Local
(UTC-4)
 Zulu
(UTC)
Morning civil twilight05:2009:20
Sunrise05:5209:52
Sunset20:3200:32
Evening civil twilight21:0401:04

Current date and time
Zulu (UTC)  18-Jul-2019 02:02:08
Local (UTC-4)  17-Jul-2019 22:02:08
 
METAR
KLNS 
9nm E 
180153Z 08003KT 10SM CLR 23/23 A2989 RMK AO2 SLP119 T02330228
KMDT 
14nm NW 
180156Z 00000KT 10SM FEW010 SCT100 OVC250 24/22 A2988 RMK AO2 SLP117 LTG DSNT NW T02440217
KCXY 
18nm NW 
180156Z AUTO 10003KT 10SM BKN040 BKN100 26/22 A2989 RMK AO2 LTG DSNT NW SLP120 T02560217
KMUI 
20nm N 
180156Z AUTO 00000KT 10SM BKN016 BKN036 BKN140 24/23 A2990 RMK AO2 RAB15E38 CIG 016V060 BKN016 V SCT SLP124 P0003 T02360227
TAF
KLNS 
9nm E 
172136Z 1722/1818 24009G15KT P6SM VCSH SCT060 TEMPO 1722/1724 23015G28KT 1 1/2SM TSRA BR OVC040CB FM180100 19005KT P6SM SCT035 OVC080 FM180300 VRB04KT P6SM SCT025 OVC050 FM181200 31006KT P6SM OVC015
KMDT 
14nm NW 
172256Z 1723/1818 32007KT 4SM SHRA BR SCT025 BKN060 FM180000 21004KT P6SM -SHRA SCT035 OVC060 FM180300 15005KT P6SM OVC050 FM180600 VRB03KT 5SM BR OVC025 FM181200 32005KT P6SM OVC015
KMUI 
20nm N 
171900Z 1719/1901 17009KT 9999 SCT050 BKN085 QNH2981INS TEMPO 1719/1724 25015G30KT 3200 -TSRA BKN040CB BECMG 1723/1724 20006KT 4800 -SHRA BR BKN020 OVC050 QNH2983INS TEMPO 1800/1803 25015G30KT -TSRA BKN020CB BECMG 1805/1806 18006KT 4800 -SHRA BR SCT005 BKN012 QNH2983INS TEMPO 1806/1810 3200 BKN005 BECMG 1811/1813 21006KT 4800 BR SCT005 BKN030 QNH2985INS BECMG 1813/1814 27009KT 9999 NSW BKN030 BKN045 QNH2980INS TEMPO 1820/1823 27012G20KT 4800 -TSRA BKN030CB TX33/1720Z TN21/1810Z LAST NO AMDS AFT
NOTAMs
Click for the latest NOTAMs
NOTAMs are issued by the DoD/FAA and will open in a separate window not controlled by AirNav.

 

 
 

Would you like to see your business listed on this page?

 If your business provides an interesting product or service to pilots, flight crews, aircraft, or users of the Walnut Grove Airport, you should consider listing it here.  To start the listing process, click on the button below
 
Add a business
 

Other Pages about Walnut Grove Airport

Update a link
 
Copyright © AirNav, LLC. All rights reserved. Privacy Policy  Contact